Time;durP1;ratioP1;P1;durP2;ratioP2;P2;SDS_P1;SDS_P2;PMS_P1;PMS_P2;Temp;Humidity;BMP_temperature;BMP_pressure;BME280_temperature;BME280_humidity;BME280_pressure;Samples;Min_cycle;Max_cycle;Signal;HPM_P1;HPM_P2
2021/06/14 00:00:43;;;;;;;12.43;8.43;;;19.20;99.90;;;19.80;66.25;102299.09;5114197;28;20055;-66
2021/06/14 00:03:12;;;;;;;9.40;8.07;;;19.20;99.90;;;19.89;66.88;102293.53;5114696;28;20075;-66
2021/06/14 00:05:48;;;;;;;12.25;8.77;;;19.30;99.90;;;20.09;65.78;102290.44;5114501;28;20447;-66
2021/06/14 00:08:19;;;;;;;11.48;8.60;;;19.60;99.90;;;20.04;66.49;102286.94;5114595;28;20036;-66
2021/06/14 00:10:51;;;;;;;12.68;8.95;;;19.60;99.90;;;20.12;65.14;102287.66;5114242;28;20047;-66
2021/06/14 00:13:22;;;;;;;12.82;8.32;;;19.60;99.90;;;19.94;65.63;102274.63;5114233;28;20127;-66
2021/06/14 00:15:51;;;;;;;13.75;8.35;;;19.40;99.90;;;19.76;69.29;102281.25;5114361;28;20092;-66
2021/06/14 00:18:21;;;;;;;8.73;7.70;;;19.30;99.90;;;19.61;70.32;102260.06;5114186;28;20217;-66
2021/06/14 00:20:57;;;;;;;12.25;8.35;;;19.20;99.90;;;19.82;69.78;102281.16;5095060;28;20047;-66
2021/06/14 00:23:28;;;;;;;9.18;7.78;;;19.30;99.90;;;19.73;68.08;102259.81;5114292;28;20035;-66
2021/06/14 00:25:58;;;;;;;12.15;8.32;;;19.30;99.90;;;19.90;68.68;102265.72;5114036;28;20052;-66
2021/06/14 00:28:27;;;;;;;12.83;7.70;;;19.30;99.90;;;19.85;68.96;102274.81;5114242;28;20497;-66
2021/06/14 00:30:58;;;;;;;13.10;8.47;;;19.40;99.90;;;19.82;68.21;102272.19;5114038;28;20286;-66
2021/06/14 00:33:29;;;;;;;10.45;8.20;;;19.30;99.90;;;19.84;67.61;102268.53;5113888;28;20524;-66
2021/06/14 00:35:57;;;;;;;10.85;8.25;;;19.40;99.90;;;19.86;68.41;102272.09;5113810;28;20503;-66
2021/06/14 00:38:26;;;;;;;11.00;8.63;;;19.40;99.90;;;19.71;68.31;102249.13;5113838;28;20464;-66
2021/06/14 00:40:54;;;;;;;10.85;8.90;;;19.30;99.90;;;19.76;69.02;102257.94;5113583;28;20047;-66
2021/06/14 00:43:24;;;;;;;10.25;8.57;;;19.30;99.90;;;19.62;69.44;102253.78;5113539;28;20517;-66
2021/06/14 00:45:53;;;;;;;10.68;8.55;;;19.10;99.90;;;19.51;69.87;102239.69;5113491;28;20032;-66
2021/06/14 00:48:23;;;;;;;11.68;8.25;;;19.00;99.90;;;19.34;71.34;102231.06;5095525;28;20044;-66
2021/06/14 00:50:59;;;;;;;8.50;7.68;;;18.90;99.90;;;19.08;73.25;102202.00;5113864;28;20100;-66
2021/06/14 00:53:30;;;;;;;9.52;7.80;;;18.80;99.90;;;18.82;72.44;102164.91;5113693;28;20055;-66
2021/06/14 00:56:00;;;;;;;11.75;8.48;;;18.60;99.90;;;19.10;71.99;102201.97;5113254;28;20051;-66
2021/06/14 00:58:33;;;;;;;8.98;7.90;;;18.70;99.90;;;19.25;72.20;102228.50;5113333;28;20096;-66
2021/06/14 01:01:03;;;;;;;8.60;7.60;;;18.70;99.90;;;19.23;71.33;102223.19;5095047;28;20055;-66
2021/06/14 01:03:32;;;;;;;8.30;7.20;;;18.70;99.90;;;19.26;70.79;102212.38;5113341;28;20056;-66
2021/06/14 01:06:10;;;;;;;10.40;7.90;;;18.70;99.90;;;19.35;69.65;102220.31;5095100;28;20138;-66
2021/06/14 01:08:43;;;;;;;10.57;7.78;;;18.80;99.90;;;19.12;69.51;102170.63;5095052;28;20085;-66
2021/06/14 01:11:20;;;;;;;12.85;8.20;;;18.90;99.90;;;19.20;69.03;102206.25;5112799;28;20054;-66
2021/06/14 01:13:59;;;;;;;15.15;8.65;;;18.80;99.90;;;19.08;69.90;102177.88;5113311;28;20044;-66
2021/06/14 01:16:38;;;;;;;11.13;8.18;;;18.70;99.90;;;19.16;72.09;102194.72;5094812;28;20138;-66
2021/06/14 01:19:36;;;;;;;13.55;8.65;;;18.60;99.90;;;19.23;72.55;102193.66;5113003;28;20489;-66
2021/06/14 01:22:40;;;;;;;9.70;7.75;;;18.70;99.90;;;19.31;71.05;102190.84;5112991;28;20062;-66
2021/06/14 01:25:14;;;;;;;13.23;8.68;;;18.80;99.90;;;19.21;70.56;102168.66;5112969;28;20088;-66
2021/06/14 01:27:50;;;;;;;16.08;9.60;;;18.80;99.90;;;19.31;69.49;102185.47;5094629;28;20493;-66
2021/06/14 01:30:26;;;;;;;15.93;9.32;;;18.90;99.90;;;19.35;68.90;102181.84;5112965;28;20040;-66
2021/06/14 01:32:58;;;;;;;12.00;8.35;;;18.90;99.90;;;19.54;67.68;102178.78;5094332;28;20040;-66
2021/06/14 01:35:36;;;;;;;12.48;8.40;;;19.00;99.90;;;19.06;66.63;102074.19;5112978;28;20052;-66
2021/06/14 01:38:08;;;;;;;11.95;8.30;;;19.10;99.90;;;19.48;65.19;102170.84;5094565;28;20515;-66
2021/06/14 01:40:39;;;;;;;13.40;8.60;;;19.10;99.90;;;19.37;64.71;102170.19;5094435;28;20550;-66
2021/06/14 01:43:14;;;;;;;14.27;8.18;;;19.00;99.90;;;19.36;64.22;102165.72;5112920;28;20053;-66
2021/06/14 01:45:50;;;;;;;12.95;8.60;;;18.90;99.90;;;19.40;63.92;102163.84;5049627;28;20495;-66
2021/06/14 01:48:21;;;;;;;13.80;7.95;;;19.00;99.90;;;19.30;63.82;102138.09;5033098;28;20514;-66
2021/06/14 01:50:52;;;;;;;10.50;7.78;;;19.00;99.90;;;19.55;63.79;102159.03;5049770;28;20052;-66
2021/06/14 01:53:23;;;;;;;11.23;8.15;;;19.10;99.90;;;19.41;63.88;102157.56;5033035;28;20132;-66
2021/06/14 01:55:57;;;;;;;15.35;8.43;;;19.00;99.90;;;19.33;65.20;102147.00;5049717;28;20140;-66
2021/06/14 01:58:30;;;;;;;13.35;8.27;;;18.90;99.90;;;19.22;64.56;102153.47;5049666;28;20511;-66
2021/06/14 02:01:07;;;;;;;11.48;8.73;;;18.80;99.90;;;19.33;64.41;102152.38;5032813;28;20100;-66
2021/06/14 02:03:51;;;;;;;14.88;8.55;;;18.90;99.90;;;19.51;64.18;102154.66;5032846;28;20104;-67
2021/06/14 02:06:44;;;;;;;11.73;8.38;;;19.10;99.90;;;19.63;64.21;102150.81;5049557;28;20076;-66
2021/06/14 02:09:20;;;;;;;10.82;8.77;;;19.20;99.90;;;19.77;64.14;102148.75;5049611;28;20095;-66
2021/06/14 02:11:52;;;;;;;13.15;8.40;;;19.30;99.90;;;19.83;64.12;102142.34;5049699;28;20044;-66
2021/06/14 02:14:25;;;;;;;16.13;8.85;;;19.40;99.90;;;19.91;63.62;102152.03;5049638;28;20073;-66
2021/06/14 02:16:57;;;;;;;11.25;8.90;;;19.50;99.90;;;19.84;62.99;102147.69;5049657;28;20102;-66
2021/06/14 02:19:25;;;;;;;14.43;9.38;;;19.50;99.90;;;19.66;62.79;102121.25;5049583;28;20103;-66
2021/06/14 02:21:55;;;;;;;12.73;8.77;;;19.50;99.90;;;19.86;62.65;102153.03;5049382;28;20041;-66
2021/06/14 02:24:24;;;;;;;12.32;8.98;;;19.40;99.90;;;19.84;62.68;102145.00;5106867;28;20129;-66
2021/06/14 02:26:55;;;;;;;13.18;9.15;;;19.40;99.90;;;19.90;62.67;102147.53;5094164;28;20039;-66
2021/06/14 02:29:25;;;;;;;11.10;8.90;;;19.50;99.90;;;19.86;62.36;102142.28;5112510;28;20114;-66
2021/06/14 02:31:54;;;;;;;12.35;8.73;;;19.50;99.90;;;19.77;62.24;102148.75;5112489;28;20048;-66
2021/06/14 02:34:25;;;;;;;11.73;9.20;;;19.40;99.90;;;19.77;61.95;102136.22;5094230;28;20117;-66
2021/06/14 02:36:55;;;;;;;12.90;9.18;;;19.40;99.90;;;19.72;61.95;102138.09;5094187;28;20047;-66
2021/06/14 02:39:28;;;;;;;13.65;9.25;;;19.30;99.90;;;19.62;62.10;102139.22;5112600;28;20113;-66
2021/06/14 02:41:58;;;;;;;14.70;9.55;;;19.20;99.90;;;19.34;62.74;102137.13;5094132;28;20074;-66
2021/06/14 02:44:30;;;;;;;13.05;9.95;;;18.90;99.90;;;19.11;63.10;102144.72;5071312;28;20499;-66
2021/06/14 02:47:06;;;;;;;17.35;9.65;;;18.70;99.90;;;19.10;63.18;102151.91;5056145;28;20056;-66
2021/06/14 02:49:36;;;;;;;12.43;9.20;;;18.60;99.90;;;19.03;63.18;102126.09;5056157;28;20040;-66
2021/06/14 02:52:07;;;;;;;;;;;18.60;99.90;;;19.22;62.77;102145.41;5073321;28;20106;-66
2021/06/14 02:54:41;;;;;;;11.25;8.93;;;18.70;99.90;;;19.37;62.47;102142.44;5056091;28;20370;-66
2021/06/14 02:57:12;;;;;;;12.20;9.07;;;18.90;99.90;;;19.36;62.23;102154.09;5055921;28;20056;-66
2021/06/14 02:59:47;;;;;;;12.05;9.75;;;18.90;99.90;;;19.41;62.46;102145.06;5055494;28;20051;-65
2021/06/14 03:02:21;;;;;;;15.30;9.48;;;18.90;99.90;;;19.30;62.56;102138.97;5055916;28;20545;-66
2021/06/14 03:04:50;;;;;;;18.27;10.32;;;18.80;99.90;;;19.31;62.29;102139.84;5055841;28;20464;-66
2021/06/14 03:07:23;;;;;;;14.13;9.35;;;18.80;99.90;;;18.77;61.85;102024.72;5072609;28;20563;-66
2021/06/14 03:09:53;;;;;;;14.30;9.85;;;18.90;99.90;;;19.39;61.97;102132.56;5055733;28;20078;-66
2021/06/14 03:12:26;;;;;;;17.75;10.68;;;18.90;99.90;;;19.47;62.13;102139.53;5055821;28;20425;-66
2021/06/14 03:14:59;;;;;;;12.48;9.90;;;18.90;99.90;;;19.55;61.77;102142.94;5064921;28;20044;-66
2021/06/14 03:17:28;;;;;;;13.45;9.18;;;19.10;99.90;;;19.66;61.52;102140.03;5097050;28;20173;-66
2021/06/14 03:19:58;;;;;;;14.07;9.77;;;19.20;99.90;;;19.73;61.13;102137.19;5096980;28;20047;-66
2021/06/14 03:22:27;;;;;;;14.55;10.30;;;19.30;99.90;;;19.80;60.85;102140.63;5096852;28;20047;-66
2021/06/14 03:24:57;;;;;;;;;;;19.30;99.90;;;19.82;60.64;102135.22;5115541;28;20051;-66
2021/06/14 03:27:27;;;;;;;14.20;10.07;;;19.40;99.90;;;19.83;60.30;102135.19;5097006;28;19959;-66
2021/06/14 03:29:57;;;;;;;16.27;9.82;;;19.40;99.90;;;19.92;59.93;102137.66;5096990;28;20046;-66
2021/06/14 03:32:26;;;;;;;15.20;9.07;;;19.50;99.90;;;19.97;59.34;102157.25;5115348;28;20043;-66
2021/06/14 03:34:55;;;;;;;15.43;9.50;;;19.50;99.90;;;19.96;58.91;102144.72;5115163;28;20415;-66
2021/06/14 03:37:24;;;;;;;16.60;8.75;;;19.60;99.90;;;19.95;58.71;102142.09;5115138;28;20044;-66
2021/06/14 03:39:53;;;;;;;16.77;10.10;;;19.60;99.90;;;19.96;58.93;102139.34;5115061;28;20043;-66
2021/06/14 03:42:22;;;;;;;14.60;9.20;;;19.60;99.90;;;20.01;58.71;102142.84;5096643;28;20058;-66
2021/06/14 03:44:50;;;;;;;15.60;8.82;;;19.60;99.90;;;20.02;58.14;102147.28;5115242;28;20054;-66
2021/06/14 03:47:20;;;;;;;16.23;9.48;;;19.60;99.90;;;20.04;57.87;102150.81;5096627;28;20550;-66
2021/06/14 03:49:49;;;;;;;17.20;9.30;;;19.60;99.90;;;20.12;57.73;102156.91;5115031;28;20047;-66
2021/06/14 03:52:17;;;;;;;15.63;10.00;;;19.70;99.90;;;20.10;57.71;102161.41;5114639;28;20293;-66
2021/06/14 03:54:46;;;;;;;15.95;9.13;;;19.70;99.90;;;20.08;57.60;102154.31;5114882;28;20043;-66
2021/06/14 03:57:15;;;;;;;12.57;8.75;;;19.70;99.90;;;19.99;57.99;102149.16;5114945;28;20048;-66
2021/06/14 03:59:44;;;;;;;14.73;9.93;;;19.50;99.90;;;20.01;57.93;102142.84;5114509;28;20074;-65
2021/06/14 04:02:12;;;;;;;14.13;9.07;;;19.50;99.90;;;19.92;58.08;102151.09;5114435;28;20546;-66
2021/06/14 04:04:48;;;;;;;15.60;8.80;;;19.50;99.90;;;19.94;58.28;102151.06;5114731;28;20055;-66
2021/06/14 04:07:34;;;;;;;12.73;8.60;;;19.50;99.90;;;20.08;57.76;102165.94;5096346;28;20043;-66
2021/06/14 04:10:02;;;;;;;13.35;8.73;;;19.60;99.90;;;20.18;57.54;102166.63;5096245;28;20070;-66
2021/06/14 04:12:32;;;;;;;16.50;9.60;;;19.70;99.90;;;20.23;57.37;102162.94;5114762;28;20058;-66
2021/06/14 04:15:01;;;;;;;12.35;8.73;;;19.70;99.90;;;20.01;57.45;102125.81;5114452;28;20052;-66
2021/06/14 04:17:29;;;;;;;11.25;7.63;;;19.70;99.90;;;20.30;61.90;102151.13;5114146;28;20484;-66
2021/06/14 04:19:59;;;;;;;10.00;8.50;;;19.80;99.90;;;20.31;65.40;102157.38;5114040;28;20437;-66
2021/06/14 04:22:28;;;;;;;12.23;8.82;;;19.80;99.90;;;20.28;66.20;102152.09;5114420;28;20444;-66
2021/06/14 04:24:56;;;;;;;15.93;9.38;;;19.80;99.90;;;20.22;63.78;102153.13;5114337;28;20052;-66
2021/06/14 04:27:25;;;;;;;13.05;8.82;;;19.70;99.90;;;20.02;64.75;102125.78;5114074;28;20047;-66
2021/06/14 04:29:54;;;;;;;13.13;8.95;;;19.70;99.90;;;20.22;62.74;102146.84;5114076;28;20443;-66
2021/06/14 04:32:23;;;;;;;17.08;9.65;;;19.70;99.90;;;20.15;59.65;102154.13;5095764;28;20055;-66
2021/06/14 04:34:54;;;;;;;12.32;9.30;;;19.70;99.90;;;19.97;58.71;102133.06;5114369;28;20044;-66
2021/06/14 04:37:24;;;;;;;16.63;10.32;;;19.50;99.90;;;19.80;59.10;102135.28;5114085;28;20135;-66
2021/06/14 04:39:52;;;;;;;17.38;9.68;;;19.30;99.90;;;19.50;60.57;102134.13;5114118;28;20055;-66
2021/06/14 04:42:21;;;;;;;20.45;9.68;;;19.10;99.90;;;19.35;61.32;102126.38;5113468;28;20086;-66
2021/06/14 04:44:50;;;;;;;19.05;10.30;;;18.90;99.90;;;19.17;63.16;102117.75;5113531;28;20120;-66
2021/06/14 04:47:18;;;;;;;14.70;10.40;;;18.70;99.90;;;19.20;62.89;102115.91;5113643;28;20096;-66
2021/06/14 04:49:47;;;;;;;15.05;10.18;;;18.70;99.90;;;19.13;63.25;102110.69;5113485;28;20050;-66
2021/06/14 04:52:16;;;;;;;16.95;10.00;;;18.70;99.90;;;19.01;63.91;102087.66;5113572;28;20047;-66
2021/06/14 04:54:46;;;;;;;18.70;10.27;;;18.70;99.90;;;18.53;64.12;101993.00;5113470;28;20047;-66
2021/06/14 04:57:15;;;;;;;17.90;10.45;;;18.70;99.90;;;18.91;64.82;102107.56;5113332;28;20106;-66
2021/06/14 04:59:43;;;;;;;22.38;10.50;;;18.50;99.90;;;19.01;64.89;102102.91;5113218;28;20431;-65
2021/06/14 05:02:14;;;;;;;19.20;10.75;;;18.50;99.90;;;19.08;64.56;102107.22;5113552;28;20058;-66
2021/06/14 05:04:43;;;;;;;17.15;10.73;;;18.60;99.90;;;19.19;64.80;102107.88;5113597;28;20047;-66
2021/06/14 05:07:11;;;;;;;16.20;10.10;;;18.70;99.90;;;19.21;64.71;102109.63;5094667;28;20497;-66
2021/06/14 05:09:39;;;;;;;16.10;10.57;;;18.80;99.90;;;19.29;63.81;102106.78;5113274;28;20069;-66
2021/06/14 05:12:11;;;;;;;19.08;9.82;;;18.80;99.90;;;19.40;63.47;102110.16;5113390;28;20126;-66
2021/06/14 05:14:45;;;;;;;18.38;11.27;;;18.90;99.90;;;19.53;64.29;102106.34;5113409;28;20039;-66
2021/06/14 05:17:13;;;;;;;19.30;10.05;;;19.10;99.90;;;19.55;64.19;102099.13;5113223;28;20035;-66
2021/06/14 05:19:41;;;;;;;20.00;10.35;;;19.10;99.90;;;19.51;64.00;102102.78;5113173;28;20051;-66
2021/06/14 05:22:10;;;;;;;22.13;11.65;;;19.10;99.90;;;19.69;63.97;102110.44;5113152;28;20461;-66
2021/06/14 05:24:41;;;;;;;22.77;11.30;;;19.20;99.90;;;19.96;63.07;102117.88;5113000;28;20039;-66
2021/06/14 05:27:11;;;;;;;;;;;19.50;99.90;;;20.21;63.57;102120.91;5094796;28;20055;-66
2021/06/14 05:29:39;;;;;;;17.27;10.65;;;19.70;99.90;;;20.49;63.99;102122.88;5094642;28;19931;-66
2021/06/14 05:32:09;;;;;;;18.02;10.73;;;20.10;99.90;;;20.50;62.68;102099.53;5112744;28;20071;-66
2021/06/14 05:34:38;;;;;;;16.95;10.85;;;20.20;99.90;;;20.24;63.30;102026.75;5113041;28;20047;-66
2021/06/14 05:37:06;;;;;;;20.98;11.32;;;20.40;99.90;;;20.35;62.87;102032.75;5112794;28;20118;-66
2021/06/14 05:39:35;;;;;;;19.85;12.02;;;20.50;99.90;;;20.88;62.76;102112.88;5094090;28;20043;-66
2021/06/14 05:42:04;;;;;;;22.10;11.45;;;20.50;99.90;;;20.62;61.80;102089.38;5112346;28;20043;-66
2021/06/14 05:44:34;;;;;;;22.95;12.25;;;20.40;99.90;;;20.56;61.76;102105.66;5112708;28;20147;-66
2021/06/14 05:47:02;;;;;;;21.40;11.82;;;20.20;99.90;;;20.63;62.85;102101.88;5112863;28;20044;-66
2021/06/14 05:49:30;;;;;;;24.10;12.23;;;20.20;99.90;;;20.62;63.04;102100.13;5094443;28;20101;-66
2021/06/14 05:52:00;;;;;;;19.40;11.90;;;20.30;99.90;;;20.61;62.02;102097.47;5112652;28;20051;-66
2021/06/14 05:54:29;;;;;;;21.63;12.15;;;20.30;99.90;;;20.70;61.69;102083.78;5094359;28;20443;-66
2021/06/14 05:56:58;;;;;;;18.75;12.00;;;20.30;99.90;;;20.69;61.69;102085.59;5094391;28;20127;-66
2021/06/14 05:59:26;;;;;;;20.48;12.05;;;20.40;99.90;;;20.70;60.09;102089.16;5094250;28;20411;-66
2021/06/14 06:01:56;;;;;;;16.33;11.60;;;20.40;99.90;;;20.81;59.70;102075.44;5111977;28;20101;-66
2021/06/14 06:04:24;;;;;;;25.38;12.43;;;20.50;99.90;;;20.76;60.09;102043.28;5094270;28;20056;-66
2021/06/14 06:06:53;;;;;;;28.30;12.25;;;20.60;99.90;;;21.00;58.21;102074.84;5112245;28;20461;-66
2021/06/14 06:09:21;;;;;;;21.98;11.60;;;20.80;99.90;;;20.96;57.10;102073.22;5112394;28;20054;-66
2021/06/14 06:11:50;;;;;;;22.60;11.55;;;20.70;99.90;;;21.15;57.06;102073.59;5112708;28;20044;-66
2021/06/14 06:14:19;;;;;;;22.40;12.20;;;20.80;99.90;;;21.28;57.78;102070.50;5094126;28;20048;-66
2021/06/14 06:16:48;;;;;;;17.98;10.68;;;21.00;99.90;;;21.31;56.21;102074.94;5094223;28;20450;-66
2021/06/14 06:19:19;;;;;;;19.65;11.10;;;21.10;99.90;;;21.32;54.02;102073.97;5096321;28;20138;-66
2021/06/14 06:21:47;;;;;;;20.52;11.60;;;21.10;99.90;;;21.24;55.76;102062.56;5116580;28;20043;-66
2021/06/14 06:24:16;;;;;;;21.40;10.77;;;21.00;99.90;;;21.42;56.25;102067.41;5116648;28;20051;-66
2021/06/14 06:26:44;;;;;;;18.75;10.82;;;21.10;99.90;;;21.43;54.71;102053.00;5116573;28;20354;-66
2021/06/14 06:29:13;;;;;;;15.93;10.65;;;21.10;99.90;;;21.41;52.84;102060.22;5098067;28;20138;-66
2021/06/14 06:31:41;;;;;;;18.13;11.23;;;21.20;99.90;;;21.42;53.50;102062.00;5116441;28;20120;-66
2021/06/14 06:34:10;;;;;;;22.05;10.27;;;21.20;99.90;;;21.61;53.17;102046.16;5097942;28;20055;-66
2021/06/14 06:36:40;;;;;;;18.55;10.48;;;21.40;99.90;;;21.67;51.91;102049.56;5116268;28;20047;-66
2021/06/14 06:39:08;;;;;;;20.88;10.27;;;21.40;99.90;;;21.67;53.36;102048.66;5116255;28;20438;-66
2021/06/14 06:41:37;;;;;;;21.83;10.55;;;21.40;99.90;;;21.76;52.07;102046.56;5115780;28;20089;-66
2021/06/14 06:44:05;;;;;;;17.25;9.93;;;21.50;99.90;;;21.83;52.84;102042.81;5116171;28;20043;-66
2021/06/14 06:46:34;;;;;;;18.67;10.38;;;21.60;99.90;;;21.78;52.39;102016.88;5116114;28;20043;-66
2021/06/14 06:49:03;;;;;;;18.60;9.35;;;21.60;99.90;;;22.00;52.02;102053.91;5116164;28;20048;-66
2021/06/14 06:51:32;;;;;;;19.77;9.68;;;21.70;99.90;;;22.13;51.47;102057.97;5115633;28;20043;-66
2021/06/14 06:54:11;;;;;;;21.20;10.15;;;21.80;99.90;;;22.37;49.67;102057.16;5115859;28;20089;-66
2021/06/14 06:56:47;;;;;;;17.75;9.35;;;22.00;99.90;;;22.48;48.77;102051.38;5097447;28;20481;-66
2021/06/14 06:59:17;;;;;;;19.02;9.30;;;22.20;99.90;;;22.65;47.94;102037.34;5115915;28;20047;-66
2021/06/14 07:01:45;;;;;;;14.95;8.90;;;22.40;99.90;;;22.68;47.92;102050.72;5115438;28;20461;-66
2021/06/14 07:04:15;;;;;;;19.20;8.50;;;22.40;99.90;;;22.74;47.83;102042.41;5116018;28;20142;-66
2021/06/14 07:06:44;;;;;;;17.95;9.35;;;22.40;99.90;;;22.96;47.29;102046.06;5097431;28;20088;-66
2021/06/14 07:09:14;;;;;;;18.25;9.43;;;22.70;99.90;;;22.95;46.61;102049.72;5097336;28;20058;-66
2021/06/14 07:11:42;;;;;;;19.17;9.18;;;22.70;99.90;;;23.19;49.78;102038.00;5115321;28;20047;-66
2021/06/14 07:14:11;;;;;;;15.55;8.63;;;22.80;99.90;;;23.20;46.71;102021.75;5115401;28;20118;-66
2021/06/14 07:16:40;;;;;;;19.63;9.13;;;23.00;99.90;;;23.32;46.55;102035.75;5096546;28;20381;-66
2021/06/14 07:19:08;;;;;;;17.83;8.82;;;23.10;99.90;;;23.48;47.65;102040.47;5115363;28;20054;-66
2021/06/14 07:21:37;;;;;;;14.77;8.73;;;23.20;99.90;;;23.50;47.22;102035.91;5115232;28;20039;-66
2021/06/14 07:24:07;;;;;;;18.20;8.85;;;23.20;99.90;;;23.70;47.17;102041.41;5115202;28;20089;-66
2021/06/14 07:26:37;;;;;;;19.92;8.82;;;23.40;99.90;;;23.77;46.76;102037.50;5115365;28;20485;-66
2021/06/14 07:29:06;;;;;;;20.63;9.23;;;23.50;99.90;;;23.84;46.82;102033.63;5114717;28;20134;-66
2021/06/14 07:31:35;;;;;;;16.10;9.32;;;23.60;99.90;;;24.03;46.00;102040.06;5096864;28;20047;-66
2021/06/14 07:34:06;;;;;;;19.05;8.68;;;23.70;99.90;;;24.21;45.83;102029.44;5096869;28;20047;-66
2021/06/14 07:36:35;;;;;;;21.02;8.90;;;23.80;99.90;;;24.41;46.99;102045.72;5114873;28;20063;-66
2021/06/14 07:39:06;;;;;;;18.17;8.20;;;24.00;99.90;;;24.59;46.52;102034.06;5115343;28;20051;-66
2021/06/14 07:41:34;;;;;;;23.67;9.07;;;24.20;99.90;;;24.83;46.35;102054.69;5114897;28;20071;-66
2021/06/14 07:44:05;;;;;;;20.38;8.90;;;24.40;99.90;;;24.96;44.38;102050.47;5096660;28;20055;-66
2021/06/14 07:46:34;;;;;;;20.88;8.85;;;24.60;99.90;;;25.07;44.29;102034.59;5115074;28;20046;-66
2021/06/14 07:49:03;;;;;;;17.60;8.82;;;24.80;99.90;;;25.20;43.20;102043.94;5114762;28;20040;-66
2021/06/14 07:51:31;;;;;;;17.10;8.60;;;24.80;99.90;;;25.36;43.50;102047.69;5114846;28;20418;-66
2021/06/14 07:54:00;;;;;;;16.35;8.80;;;25.00;99.90;;;25.50;43.93;102045.25;5114826;28;20397;-66
2021/06/14 07:56:29;;;;;;;16.58;8.93;;;25.10;99.90;;;25.61;44.29;102033.91;5096241;28;20413;-66
2021/06/14 07:58:57;;;;;;;16.45;8.65;;;25.20;99.90;;;25.67;43.91;102041.72;5114478;28;20519;-66
2021/06/14 08:01:27;;;;;;;14.32;9.00;;;25.30;99.90;;;25.67;42.99;102041.72;5096136;28;20053;-67
2021/06/14 08:03:56;;;;;;;16.73;9.75;;;25.30;99.90;;;25.76;43.23;102046.72;5114336;28;20054;-67
2021/06/14 08:06:24;;;;;;;15.38;10.15;;;25.40;99.90;;;25.94;42.84;102057.53;5114677;28;20058;-66
2021/06/14 08:08:53;;;;;;;16.42;10.00;;;25.60;99.90;;;26.11;43.20;102058.56;5114576;28;20044;-66
2021/06/14 08:11:22;;;;;;;18.20;10.98;;;25.70;99.90;;;26.17;42.43;102053.69;5114554;28;20040;-66
2021/06/14 08:13:51;;;;;;;18.35;8.40;;;25.80;99.90;;;26.11;41.70;102058.56;5114507;28;20350;-66
2021/06/14 08:16:41;;;;;;;15.10;8.48;;;25.70;99.90;;;26.22;41.67;102064.31;5114512;28;20043;-66
2021/06/14 08:19:13;;;;;;;15.38;7.78;;;25.80;99.90;;;26.30;40.97;102059.41;5114767;28;20044;-67
2021/06/14 08:21:55;;;;;;;15.07;7.47;;;25.90;99.90;;;26.37;41.31;102059.00;5114402;28;20048;-67
2021/06/14 08:27:10;;;;;;;14.32;8.00;;;26.10;99.90;;;25.85;41.21;101962.19;5114038;28;20047;-67
2021/06/14 08:29:40;;;;;;;19.77;7.78;;;26.00;99.90;;;26.47;41.95;102049.44;5095783;28;20120;-66
2021/06/14 08:32:10;;;;;;;13.38;7.15;;;26.20;99.90;;;26.69;41.36;102052.78;5114112;28;20085;-67
2021/06/14 08:34:38;;;;;;;14.93;7.25;;;26.30;99.90;;;26.89;43.28;102057.19;5095798;28;20059;-66
2021/06/14 08:37:07;;;;;;;15.80;7.47;;;26.50;99.90;;;26.96;42.38;102057.75;5114017;28;20044;-66
2021/06/14 08:39:35;;;;;;;17.30;7.28;;;26.60;99.90;;;27.16;41.35;102060.28;5095590;28;20096;-66
2021/06/14 08:42:06;;;;;;;16.30;7.53;;;26.80;99.90;;;27.24;41.14;102063.44;5113155;28;20047;-67
2021/06/14 08:44:35;;;;;;;15.30;7.00;;;26.90;99.90;;;27.08;40.21;102024.50;5113814;28;20347;-67
2021/06/14 08:47:06;;;;;;;16.13;8.07;;;27.00;99.90;;;27.35;40.64;102064.63;5113757;28;20039;-66
2021/06/14 08:49:37;;;;;;;13.55;7.15;;;27.00;99.90;;;27.55;41.01;102064.41;5113812;28;20059;-66
2021/06/14 08:52:07;;;;;;;12.77;7.78;;;27.20;99.90;;;27.59;40.54;102046.09;5113804;28;20058;-67
2021/06/14 08:54:40;;;;;;;15.63;7.57;;;27.40;99.90;;;27.87;41.13;102059.88;5113750;28;20040;-67
2021/06/14 08:57:11;;;;;;;10.70;6.97;;;27.50;99.90;;;27.78;38.29;102057.66;5095055;28;20120;-67
2021/06/14 08:59:41;;;;;;;13.10;6.50;;;27.50;99.90;;;27.89;37.88;102047.06;5095377;28;20040;-66
2021/06/14 09:02:10;;;;;;;13.63;6.43;;;27.50;99.90;;;27.90;38.10;102047.94;5113284;28;20064;-67
2021/06/14 09:04:40;;;;;;;15.48;7.10;;;27.50;99.90;;;27.71;38.93;101993.72;5113381;28;20754;-67
2021/06/14 09:07:09;;;;;;;13.88;6.88;;;27.70;99.90;;;28.01;37.72;102030.03;5113165;28;20454;-67
2021/06/14 09:09:37;;;;;;;13.18;6.78;;;27.70;99.90;;;28.17;36.59;102038.19;5113427;28;20086;-67
2021/06/14 09:12:10;;;;;;;10.40;6.70;;;27.80;99.90;;;28.14;36.63;102042.00;5113361;28;20036;-67
2021/06/14 09:14:42;;;;;;;14.82;6.80;;;27.80;99.90;;;28.29;37.28;102032.91;5095151;28;20427;-67
2021/06/14 09:17:13;;;;;;;13.18;6.72;;;27.90;99.90;;;28.40;37.21;102038.59;5113469;28;20139;-67
2021/06/14 09:19:51;;;;;;;12.57;6.43;;;28.00;99.90;;;28.44;37.62;102031.09;5095084;28;20401;-67
2021/06/14 09:22:22;;;;;;;11.50;5.78;;;28.10;99.90;;;28.38;37.22;102002.41;5113012;28;20089;-67
2021/06/14 09:24:57;;;;;;;11.68;6.18;;;28.20;99.90;;;28.63;37.03;102029.03;5112944;28;20043;-67
2021/06/14 09:27:34;;;;;;;11.23;6.30;;;28.30;99.90;;;28.72;37.06;102020.31;5112746;28;20421;-67
2021/06/14 09:30:24;;;;;;;13.45;6.32;;;28.40;99.90;;;28.83;37.08;102025.97;5112918;28;20047;-67
2021/06/14 09:32:58;;;;;;;12.02;6.82;;;28.50;99.90;;;28.85;36.13;102018.59;5094847;28;20067;-67
2021/06/14 09:35:32;;;;;;;11.07;6.40;;;28.50;99.90;;;28.95;36.48;102006.16;5113002;28;20112;-67
2021/06/14 09:38:04;;;;;;;11.65;6.70;;;28.60;99.90;;;28.73;36.27;102000.28;5112762;28;20047;-67
2021/06/14 09:40:37;;;;;;;13.95;6.65;;;28.50;99.90;;;28.72;35.25;101990.38;5112744;28;20040;-67
2021/06/14 09:43:21;;;;;;;12.48;5.88;;;28.40;99.90;;;28.98;35.13;102005.06;5112691;28;20051;-67
2021/06/14 09:45:50;;;;;;;14.98;5.50;;;28.60;99.90;;;29.05;35.33;102006.44;5112736;28;20043;-67
2021/06/14 09:48:20;;;;;;;13.48;6.30;;;28.60;99.90;;;29.02;34.59;102003.91;5112446;28;20044;-67
2021/06/14 09:50:52;;;;;;;;;;;28.70;99.90;;;29.03;36.61;101965.66;5112853;28;20031;-67
2021/06/14 09:53:23;;;;;;;12.73;6.32;;;28.80;99.90;;;29.28;35.18;102000.44;5112734;28;19927;-67
2021/06/14 09:55:53;;;;;;;14.23;5.90;;;28.90;99.90;;;29.38;34.82;102004.31;5113014;28;20077;-67
2021/06/14 09:58:24;;;;;;;12.88;6.25;;;29.00;99.90;;;29.35;36.47;101991.75;5112677;28;20053;-67
2021/06/14 10:00:58;;;;;;;9.80;5.88;;;29.00;99.90;;;29.30;35.42;101979.41;5094290;28;20059;-67
2021/06/14 10:03:29;;;;;;;12.90;6.85;;;29.00;99.90;;;29.31;34.79;101984.75;5112384;28;20043;-67
2021/06/14 10:05:59;;;;;;;;;;;29.00;99.90;;;29.17;34.97;101984.75;5094959;28;20055;-67
2021/06/14 10:08:29;;;;;;;12.37;6.43;;;28.90;99.90;;;29.12;36.35;101967.78;5112745;28;19923;-67
2021/06/14 10:11:09;;;;;;;12.98;6.30;;;28.90;99.90;;;29.17;34.70;101992.06;5111275;28;20493;-67
2021/06/14 10:13:41;;;;;;;13.65;6.05;;;28.90;99.90;;;29.21;35.15;101988.19;5094229;28;20101;-66
2021/06/14 10:16:12;;;;;;;11.60;6.70;;;28.90;99.90;;;28.81;35.05;101984.34;5093883;28;20044;-67
2021/06/14 10:18:45;;;;;;;10.82;5.78;;;28.50;99.90;;;28.98;35.33;101991.44;5112625;28;20423;-67
2021/06/14 10:21:29;;;;;;;14.15;5.65;;;28.60;99.90;;;28.79;35.83;101948.13;5094320;28;20056;-67
2021/06/14 10:24:01;;;;;;;10.20;6.10;;;28.70;99.90;;;28.59;34.83;101974.88;5112536;28;20043;-67